Russell, KS (67665)

10:41 PM CDT on June 29, 2015 (GMT -0500)
Ruppenthal Middle School | | Change Station
CLOSE
Current Station
Personal Weather Station
Location: Russell, KS
Elevation: 1854 ft
Nearby Weather Stations

Elev 1854 ft 38.89 °N, 98.86 °W | Updated 1 minute ago

Clear
Clear
79.7 °F
Feels Like 80 °F
N
0.0
Wind Variable Wind from SE
Gusts 7.0 mph

Today
High -- | Low -- °F
--% Chance of Precip.
Yesterday
High -- | Low -- °F
Precip. -- in
6:12 AM 9:04 PM
Waxing Gibbous, 95% visible
Pressure 29.91 in
Visibility 10.0 miles
Clouds Clear
Heat Index 80 °F
Dew Point 58 °F
Humidity 47%
Rainfall in
Snow Depth Not available.
UV 0 out of 12
Pollen 4.60 out of 12
Air Quality Not available.
Flu Activity No Activity
METAR KRSL 300253Z AUTO 10007KT 10SM CLR 25/14 A2996 RMK AO2 SLP128 T02500139 53008

More Conditions Fewer Conditions

Pressure 29.91 in
Visibility 10.0 miles
Clouds Clear
Heat Index 80 °F
Dew Point 58 °F
Humidity 47%
Rainfall in
Snow Depth Not available.
UV 0 out of 12
Pollen 4.60 out of 12
Air Quality Not available.
Flu Activity No Activity
METAR KRSL 300253Z AUTO 10007KT 10SM CLR 25/14 A2996 RMK AO2 SLP128 T02500139 53008

More Conditions Fewer Conditions

10-Day Weather Forecast

×

Almanac

Astronomy

Jun. 29, 2015 Rise Set
Actual Time
Civil Twilight
Nautical Twilight
Astronomical Twilight
Moon
Length of Visible Light
Length of Day
Tomorrow will be .
, % of the Moon is Illuminated

Today's Extremes

State Highs State Lows

Community

WunderPhotos

Upload Photos

1,833,956 photos uploaded!

WunderBlogs® & News

Nearby

Air Quality

  Air Quality AQ Index Pollutant
Not available.

Snow Depth

Station Depth Elevation

Earthquake Activity

City Distance Mag. Time & Date
Minimum magnitude displayed is 2.5.

Coastal Water Temperatures

Place Temperature

Stations

Nearby Weather Stations

Station Location Temp. Windchill Dew Point Humidity Wind Precip. Elev Updated Type